createdAt,value
2019-01-17T00:00:30.922Z,66.11
2019-01-17T00:03:06.930Z,65.75
2019-01-17T00:05:37.251Z,65.52
2019-01-17T00:08:07.490Z,65.54
2019-01-17T00:10:37.728Z,65.79
2019-01-17T00:13:24.363Z,66.50
2019-01-17T00:16:19.893Z,67.12
2019-01-17T00:19:05.627Z,66.88
2019-01-17T00:21:44.598Z,67.32
2019-01-17T00:24:30.002Z,67.11
2019-01-17T00:27:02.994Z,66.65
2019-01-17T00:29:42.429Z,66.85
2019-01-17T00:32:12.684Z,67.12
2019-01-17T00:34:46.020Z,66.07
2019-01-17T00:37:16.354Z,67.41
2019-01-17T00:39:49.348Z,69.21
2019-01-17T00:42:22.413Z,70.48
2019-01-17T00:45:01.789Z,71.29
2019-01-17T00:47:38.138Z,71.83
2019-01-17T00:50:28.898Z,72.53
2019-01-17T00:52:59.587Z,72.34
2019-01-17T00:55:32.412Z,72.54
2019-01-17T00:58:11.641Z,72.80
2019-01-17T01:00:41.901Z,72.89
2019-01-17T01:03:27.288Z,72.78
2019-01-17T01:06:00.323Z,72.73
2019-01-17T01:08:30.625Z,72.75
2019-01-17T01:11:13.103Z,73.14
2019-01-17T01:13:49.761Z,73.37
2019-01-17T01:16:29.608Z,73.07
2019-01-17T01:18:59.936Z,72.73
2019-01-17T01:21:39.441Z,72.59
2019-01-17T01:24:15.347Z,72.31
2019-01-17T01:26:53.676Z,70.92
2019-01-17T01:29:30.215Z,69.82
2019-01-17T01:32:03.586Z,70.17
2019-01-17T01:34:33.835Z,70.20
2019-01-17T01:37:16.156Z,70.22
2019-01-17T01:39:52.634Z,70.04
2019-01-17T01:42:39.118Z,69.93
2019-01-17T01:45:19.659Z,69.83
2019-01-17T01:47:53.256Z,69.76
2019-01-17T01:50:29.537Z,70.08
2019-01-17T01:53:02.671Z,70.34
2019-01-17T01:55:31.358Z,70.12
2019-01-17T01:58:00.051Z,70.71
2019-01-17T02:00:28.780Z,70.60
2019-01-17T02:02:57.476Z,70.73
2019-01-17T02:05:26.158Z,70.61
2019-01-17T02:07:54.876Z,69.36
2019-01-17T02:10:23.747Z,67.87
2019-01-17T02:12:52.433Z,66.31
2019-01-17T02:15:23.483Z,65.48
2019-01-17T02:17:52.167Z,64.83
2019-01-17T02:20:20.855Z,64.86
2019-01-17T02:22:49.948Z,65.07
2019-01-17T02:25:18.622Z,65.78
2019-01-17T02:27:47.220Z,66.52
2019-01-17T02:30:16.544Z,66.72
2019-01-17T02:32:45.212Z,65.98
2019-01-17T02:35:13.882Z,65.23
2019-01-17T02:37:42.645Z,65.50
2019-01-17T02:40:12.334Z,65.70
2019-01-17T02:42:41.020Z,65.71
2019-01-17T02:45:13.063Z,65.87
2019-01-17T02:47:41.839Z,66.17
2019-01-17T02:50:11.812Z,66.36
2019-01-17T02:52:40.840Z,66.08
2019-01-17T02:55:10.910Z,66.26
2019-01-17T02:57:39.584Z,68.75
2019-01-17T03:00:14.218Z,70.39
2019-01-17T03:02:42.902Z,71.32
2019-01-17T03:05:11.887Z,72.43
2019-01-17T03:07:40.723Z,73.09
2019-01-17T03:10:12.578Z,73.12
2019-01-17T03:12:41.347Z,73.81
2019-01-17T03:15:10.171Z,74.12
2019-01-17T03:17:38.852Z,74.32
2019-01-17T03:20:10.412Z,74.12
2019-01-17T03:22:39.227Z,74.09
2019-01-17T03:25:09.731Z,73.85
2019-01-17T03:27:38.412Z,73.77
2019-01-17T03:30:10.037Z,73.63
2019-01-17T03:32:38.714Z,72.65
2019-01-17T03:35:07.890Z,72.46
2019-01-17T03:37:36.672Z,72.78
2019-01-17T03:40:08.257Z,73.34
2019-01-17T03:42:36.956Z,73.71
2019-01-17T03:45:08.797Z,73.92
2019-01-17T03:47:37.476Z,73.88
2019-01-17T03:50:09.246Z,73.79
2019-01-17T03:52:38.070Z,73.32
2019-01-17T03:55:09.165Z,73.54
2019-01-17T03:57:37.849Z,73.77
2019-01-17T04:00:09.595Z,74.03
2019-01-17T04:02:38.210Z,73.75
2019-01-17T04:05:07.985Z,73.21
2019-01-17T04:07:36.699Z,73.75
2019-01-17T04:10:08.780Z,73.86
2019-01-17T04:12:37.466Z,75.71
2019-01-17T04:15:07.863Z,76.65
2019-01-17T04:17:36.600Z,77.89
2019-01-17T04:20:08.347Z,78.39
2019-01-17T04:22:37.270Z,78.96
2019-01-17T04:25:08.655Z,79.09
2019-01-17T04:27:37.382Z,79.15
2019-01-17T04:30:17.344Z,78.19
2019-01-17T04:32:46.234Z,78.14
2019-01-17T04:35:14.861Z,77.67
2019-01-17T04:37:43.576Z,77.48
2019-01-17T04:40:13.667Z,76.88
2019-01-17T04:42:42.350Z,76.29
2019-01-17T04:45:13.036Z,76.22
2019-01-17T04:47:41.711Z,75.99
2019-01-17T04:50:12.607Z,75.90
2019-01-17T04:52:41.831Z,75.94
2019-01-17T04:55:12.319Z,75.69
2019-01-17T04:57:41.007Z,75.36
2019-01-17T05:00:21.043Z,74.88
2019-01-17T05:02:49.839Z,74.29
2019-01-17T05:05:18.511Z,74.33
2019-01-17T05:07:47.319Z,74.36
2019-01-17T05:10:17.636Z,74.14
2019-01-17T05:12:46.320Z,74.05
2019-01-17T05:15:15.271Z,73.34
2019-01-17T05:17:43.943Z,73.15
2019-01-17T05:20:16.518Z,73.19
2019-01-17T05:22:48.217Z,72.64
2019-01-17T05:25:16.986Z,73.37
2019-01-17T05:27:45.665Z,74.27
2019-01-17T05:30:16.926Z,75.57
2019-01-17T05:32:45.717Z,75.46
2019-01-17T05:35:14.714Z,76.32
2019-01-17T05:37:43.456Z,76.51
2019-01-17T05:40:15.351Z,76.23
2019-01-17T05:42:44.226Z,76.25
2019-01-17T05:45:17.777Z,76.56
2019-01-17T05:47:46.458Z,74.60
2019-01-17T05:50:17.171Z,75.61
2019-01-17T05:52:46.015Z,76.57
2019-01-17T05:55:19.758Z,75.68
2019-01-17T05:57:45.210Z,77.00
2019-01-17T06:00:19.205Z,78.05
2019-01-17T06:02:47.871Z,79.06
2019-01-17T06:05:17.857Z,79.08
2019-01-17T06:07:46.692Z,79.19
2019-01-17T06:10:15.475Z,79.28
2019-01-17T06:12:45.599Z,79.68
2019-01-17T06:15:21.956Z,79.67
2019-01-17T06:17:50.637Z,80.01
2019-01-17T06:20:19.455Z,80.55
2019-01-17T06:22:48.282Z,80.72
2019-01-17T06:25:16.984Z,81.07
2019-01-17T06:27:45.656Z,81.10
2019-01-17T06:30:15.797Z,80.51
2019-01-17T06:32:44.499Z,80.39
2019-01-17T06:35:13.582Z,80.60
2019-01-17T06:37:42.310Z,80.70
2019-01-17T06:40:25.770Z,80.82
2019-01-17T06:42:54.345Z,80.62
2019-01-17T06:45:23.035Z,80.27
2019-01-17T06:47:52.727Z,79.86
2019-01-17T06:50:21.468Z,79.91
2019-01-17T06:52:50.157Z,79.74
2019-01-17T06:55:18.888Z,79.38
2019-01-17T06:57:47.733Z,78.73
2019-01-17T07:00:17.828Z,78.63
2019-01-17T07:02:46.717Z,77.65
2019-01-17T07:05:16.386Z,76.69
2019-01-17T07:07:45.185Z,76.25
2019-01-17T07:10:18.147Z,75.52
2019-01-17T07:12:46.960Z,76.09
2019-01-17T07:15:15.649Z,74.41
2019-01-17T07:17:44.331Z,72.12
2019-01-17T07:20:15.595Z,71.42
2019-01-17T07:22:44.779Z,71.52
2019-01-17T07:25:13.592Z,70.56
2019-01-17T07:27:42.354Z,71.08
2019-01-17T07:30:16.547Z,68.32
2019-01-17T07:32:45.374Z,68.79
2019-01-17T07:35:14.046Z,69.84
2019-01-17T07:37:42.730Z,70.20
2019-01-17T07:40:12.952Z,70.21
2019-01-17T07:42:41.728Z,69.94
2019-01-17T07:45:16.387Z,66.27
2019-01-17T07:47:45.284Z,66.51
2019-01-17T07:50:14.066Z,65.70
2019-01-17T07:52:42.755Z,66.89
2019-01-17T07:55:11.619Z,65.98
2019-01-17T07:57:40.295Z,67.59
2019-01-17T08:00:17.881Z,66.62
2019-01-17T08:02:46.576Z,65.42
2019-01-17T08:05:15.395Z,63.80
2019-01-17T08:07:44.194Z,63.24
2019-01-17T08:10:15.538Z,64.15
2019-01-17T08:12:44.317Z,62.54
2019-01-17T08:15:14.440Z,61.78
2019-01-17T08:17:43.224Z,59.85
2019-01-17T08:20:17.915Z,57.05
2019-01-17T08:22:46.624Z,55.49
2019-01-17T08:25:15.394Z,53.41
2019-01-17T08:27:44.533Z,53.25
2019-01-17T08:30:22.071Z,50.63
2019-01-17T08:32:50.674Z,51.18
2019-01-17T08:35:19.539Z,49.22
2019-01-17T08:37:48.302Z,48.12
2019-01-17T08:40:22.733Z,44.85
2019-01-17T08:42:51.414Z,45.51
2019-01-17T08:45:20.240Z,45.57
2019-01-17T08:47:48.925Z,46.18
2019-01-17T08:50:17.597Z,45.24
2019-01-17T08:52:46.952Z,44.93
2019-01-17T08:55:15.641Z,44.54
2019-01-17T08:57:44.322Z,43.53
2019-01-17T09:00:22.424Z,44.81
2019-01-17T09:02:51.093Z,44.73
2019-01-17T09:05:19.781Z,47.01
2019-01-17T09:07:48.911Z,46.67
2019-01-17T09:10:24.632Z,46.43
2019-01-17T09:12:53.376Z,46.01
2019-01-17T09:15:27.893Z,45.69
2019-01-17T09:17:56.562Z,45.43
2019-01-17T09:20:25.295Z,45.45
2019-01-17T09:22:53.975Z,45.07
2019-01-17T09:25:22.761Z,44.35
2019-01-17T09:27:51.566Z,44.41
2019-01-17T09:30:21.659Z,44.84
2019-01-17T09:32:50.546Z,46.41
2019-01-17T09:35:19.887Z,42.91
2019-01-17T09:37:48.579Z,43.67
2019-01-17T09:40:21.821Z,41.48
2019-01-17T09:42:50.562Z,41.19
2019-01-17T09:45:19.344Z,43.05
2019-01-17T09:47:48.039Z,41.58
2019-01-17T09:50:19.039Z,41.22
2019-01-17T09:52:47.937Z,40.32
2019-01-17T09:55:16.719Z,38.64
2019-01-17T09:57:45.492Z,38.97
2019-01-17T10:00:19.750Z,38.69
2019-01-17T10:02:48.441Z,38.73
2019-01-17T10:05:17.490Z,38.57
2019-01-17T10:07:46.183Z,38.94
2019-01-17T10:10:17.511Z,40.69
2019-01-17T10:12:47.095Z,41.96
2019-01-17T10:15:24.605Z,40.40
2019-01-17T10:17:56.251Z,39.38
2019-01-17T10:20:45.705Z,38.73
2019-01-17T10:23:20.284Z,38.65
2019-01-17T10:26:05.131Z,39.08
2019-01-17T10:29:02.278Z,38.30
2019-01-17T10:31:42.391Z,37.45
2019-01-17T10:34:35.105Z,37.94
2019-01-17T10:37:09.181Z,38.28
2019-01-17T10:40:05.042Z,38.03
2019-01-17T10:42:39.282Z,38.74
2019-01-17T10:45:17.028Z,38.37
2019-01-17T10:47:51.315Z,37.36
2019-01-17T10:50:31.913Z,37.79
2019-01-17T10:53:09.435Z,35.31
2019-01-17T10:55:53.496Z,35.55
2019-01-17T10:58:27.936Z,35.05
2019-01-17T11:01:29.793Z,33.96
2019-01-17T11:04:19.255Z,34.49
2019-01-17T11:07:02.742Z,34.89
2019-01-17T11:09:49.144Z,35.34
2019-01-17T11:12:23.520Z,35.13
2019-01-17T11:15:11.769Z,34.25
2019-01-17T11:17:55.443Z,34.03
2019-01-17T11:20:41.856Z,34.13
2019-01-17T11:23:25.595Z,34.24
2019-01-17T11:26:16.852Z,33.71
2019-01-17T11:28:51.082Z,33.46
2019-01-17T11:31:22.682Z,33.56
2019-01-17T11:33:57.011Z,34.00
2019-01-17T11:36:55.573Z,34.37
2019-01-17T11:39:41.965Z,34.58
2019-01-17T11:42:29.993Z,33.68
2019-01-17T11:45:01.670Z,34.91
2019-01-17T11:47:35.837Z,34.10
2019-01-17T11:50:16.956Z,34.12
2019-01-17T11:53:14.571Z,33.24
2019-01-17T11:55:57.988Z,33.73
2019-01-17T11:58:36.589Z,33.32
2019-01-17T12:01:40.175Z,32.90
2019-01-17T12:04:14.461Z,33.76
2019-01-17T12:06:43.140Z,32.39
2019-01-17T12:09:11.906Z,33.26
2019-01-17T12:11:40.594Z,32.75
2019-01-17T12:14:09.259Z,33.03
2019-01-17T12:16:38.025Z,33.30
2019-01-17T12:19:06.702Z,33.39
2019-01-17T12:21:35.402Z,33.01
2019-01-17T12:24:04.354Z,33.33
2019-01-17T12:26:33.042Z,33.83
2019-01-17T12:29:01.729Z,32.49
2019-01-17T12:31:30.462Z,33.29
2019-01-17T12:33:59.145Z,33.22
2019-01-17T12:36:27.964Z,33.13
2019-01-17T12:38:56.692Z,33.20
2019-01-17T12:41:25.368Z,33.57
2019-01-17T12:43:54.046Z,32.98
2019-01-17T12:46:22.857Z,33.37
2019-01-17T12:48:51.523Z,34.06
2019-01-17T12:51:20.206Z,33.04
2019-01-17T12:53:49.332Z,32.93
2019-01-17T12:56:18.014Z,33.25
2019-01-17T12:58:46.696Z,32.19
2019-01-17T13:01:16.115Z,32.02
2019-01-17T13:03:44.858Z,32.59
2019-01-17T13:06:13.533Z,33.18
2019-01-17T13:08:42.780Z,32.61
2019-01-17T13:11:11.448Z,32.76
2019-01-17T13:13:40.121Z,32.35
2019-01-17T13:16:08.881Z,32.88
2019-01-17T13:18:37.564Z,32.60
2019-01-17T13:21:06.344Z,32.84
2019-01-17T13:23:35.116Z,32.32
2019-01-17T13:26:04.005Z,32.33
2019-01-17T13:28:32.688Z,32.83
2019-01-17T13:31:01.530Z,33.07
2019-01-17T13:33:30.146Z,32.35
2019-01-17T13:35:58.767Z,32.80
2019-01-17T13:38:27.980Z,32.30
2019-01-17T13:40:56.667Z,32.74
2019-01-17T13:43:25.290Z,34.17
2019-01-17T13:45:53.921Z,33.19
2019-01-17T13:48:22.620Z,33.05
2019-01-17T13:50:51.311Z,32.59
2019-01-17T13:53:20.084Z,32.68
2019-01-17T13:55:48.758Z,32.73
2019-01-17T13:58:17.443Z,32.33
2019-01-17T14:00:46.266Z,32.60
2019-01-17T14:03:14.897Z,32.47
2019-01-17T14:05:43.575Z,32.64
2019-01-17T14:08:12.669Z,32.17
2019-01-17T14:10:42.134Z,32.12
2019-01-17T14:13:10.817Z,32.53
2019-01-17T14:15:40.631Z,32.74
2019-01-17T14:18:09.245Z,32.52
2019-01-17T14:20:37.861Z,32.48
2019-01-17T14:23:06.678Z,33.34
2019-01-17T14:25:35.356Z,33.55
2019-01-17T14:28:04.127Z,34.17
2019-01-17T14:30:35.092Z,35.05
2019-01-17T14:33:03.728Z,34.83
2019-01-17T14:35:32.514Z,35.06
2019-01-17T14:38:01.249Z,35.65
2019-01-17T14:40:29.916Z,36.79
2019-01-17T14:43:00.161Z,38.37
2019-01-17T14:45:28.898Z,39.77
2019-01-17T14:47:57.585Z,40.51
2019-01-17T14:50:28.762Z,41.50
2019-01-17T14:52:57.571Z,41.91
2019-01-17T14:55:26.259Z,42.40
2019-01-17T14:57:55.040Z,43.18
2019-01-17T15:00:28.941Z,44.49
2019-01-17T15:02:57.625Z,45.25
2019-01-17T15:05:26.301Z,46.50
2019-01-17T15:07:55.157Z,46.70
2019-01-17T15:10:26.747Z,48.57
2019-01-17T15:12:55.428Z,49.04
2019-01-17T15:15:24.231Z,50.25
2019-01-17T15:17:52.900Z,50.80
2019-01-17T15:20:21.774Z,51.56
2019-01-17T15:22:52.414Z,52.29
2019-01-17T15:25:21.089Z,52.44
2019-01-17T15:27:49.774Z,52.59
2019-01-17T15:30:21.125Z,53.76
2019-01-17T15:32:50.012Z,54.55
2019-01-17T15:35:18.706Z,55.17
2019-01-17T15:37:47.548Z,55.75
2019-01-17T15:40:22.039Z,56.17
2019-01-17T15:42:50.750Z,56.29
2019-01-17T15:45:19.477Z,56.52
2019-01-17T15:47:48.161Z,56.47
2019-01-17T15:50:18.914Z,55.71
2019-01-17T15:52:47.748Z,55.92
2019-01-17T15:55:17.538Z,56.74
2019-01-17T15:57:46.225Z,56.79
2019-01-17T16:00:18.203Z,56.93
2019-01-17T16:02:46.897Z,57.00
2019-01-17T16:05:15.781Z,57.23
2019-01-17T16:07:44.934Z,57.12
2019-01-17T16:10:15.729Z,57.10
2019-01-17T16:12:44.432Z,57.30
2019-01-17T16:15:21.773Z,57.83
2019-01-17T16:17:50.572Z,58.06
2019-01-17T16:20:19.253Z,57.93
2019-01-17T16:22:48.016Z,58.31
2019-01-17T16:25:16.699Z,58.42
2019-01-17T16:27:45.388Z,58.35
2019-01-17T16:30:29.801Z,58.17
2019-01-17T16:32:58.490Z,58.27
2019-01-17T16:35:27.172Z,58.21
2019-01-17T16:37:56.030Z,58.53
2019-01-17T16:40:24.721Z,58.60
2019-01-17T16:42:53.416Z,58.79
2019-01-17T16:45:23.795Z,59.03
2019-01-17T16:47:52.479Z,59.26
2019-01-17T16:50:23.651Z,59.44
2019-01-17T16:52:52.381Z,59.57
2019-01-17T16:55:21.178Z,59.58
2019-01-17T16:57:49.864Z,59.63
2019-01-17T17:00:24.489Z,59.76
2019-01-17T17:02:54.579Z,59.97
2019-01-17T17:05:23.263Z,60.33
2019-01-17T17:07:52.000Z,60.59
2019-01-17T17:10:20.692Z,60.87
2019-01-17T17:12:49.389Z,61.18
2019-01-17T17:15:18.324Z,61.34
2019-01-17T17:17:47.017Z,61.38
2019-01-17T17:20:21.554Z,60.93
2019-01-17T17:22:50.511Z,61.03
2019-01-17T17:25:19.198Z,61.28
2019-01-17T17:27:47.888Z,61.56
2019-01-17T17:30:19.201Z,62.19
2019-01-17T17:32:47.890Z,62.54
2019-01-17T17:35:16.571Z,62.79
2019-01-17T17:37:45.325Z,63.10
2019-01-17T17:40:22.538Z,63.28
2019-01-17T17:42:51.440Z,63.59
2019-01-17T17:45:20.203Z,63.87
2019-01-17T17:47:48.894Z,65.35
2019-01-17T17:50:20.219Z,67.32
2019-01-17T17:52:48.899Z,68.96
2019-01-17T17:55:18.782Z,70.04
2019-01-17T17:57:47.594Z,71.79
2019-01-17T18:00:20.383Z,72.84
2019-01-17T18:02:49.566Z,72.87
2019-01-17T18:05:18.382Z,73.64
2019-01-17T18:07:47.067Z,74.60
2019-01-17T18:10:17.046Z,75.88
2019-01-17T18:12:46.093Z,76.49
2019-01-17T18:15:16.593Z,76.97
2019-01-17T18:17:45.471Z,77.36
2019-01-17T18:20:15.990Z,75.58
2019-01-17T18:22:44.773Z,74.43
2019-01-17T18:25:13.547Z,74.20
2019-01-17T18:27:42.482Z,74.03
2019-01-17T18:30:14.332Z,74.48
2019-01-17T18:32:43.018Z,74.68
2019-01-17T18:35:12.049Z,74.06
2019-01-17T18:37:40.728Z,74.04
2019-01-17T18:40:12.008Z,73.75
2019-01-17T18:42:41.066Z,73.62
2019-01-17T18:45:18.241Z,73.46
2019-01-17T18:47:46.984Z,73.12
2019-01-17T18:50:18.585Z,74.51
2019-01-17T18:52:47.370Z,75.77
2019-01-17T18:55:17.503Z,76.67
2019-01-17T18:57:47.062Z,78.10
2019-01-17T19:00:22.814Z,78.47
2019-01-17T19:02:51.612Z,78.78
2019-01-17T19:05:20.492Z,78.95
2019-01-17T19:07:49.628Z,79.36
2019-01-17T19:10:19.727Z,80.06
2019-01-17T19:12:48.400Z,79.97
2019-01-17T19:15:22.430Z,79.55
2019-01-17T19:17:51.108Z,79.18
2019-01-17T19:20:21.772Z,78.76
2019-01-17T19:22:50.626Z,78.29
2019-01-17T19:25:19.425Z,77.82
2019-01-17T19:27:48.219Z,77.90
2019-01-17T19:30:22.490Z,78.07
2019-01-17T19:32:51.487Z,78.02
2019-01-17T19:35:20.581Z,77.04
2019-01-17T19:37:51.029Z,77.13
2019-01-17T19:40:24.909Z,76.85
2019-01-17T19:42:53.703Z,76.54
2019-01-17T19:45:22.471Z,75.67
2019-01-17T19:47:51.161Z,75.86
2019-01-17T19:50:31.539Z,75.93
2019-01-17T19:53:00.227Z,76.17
2019-01-17T19:55:28.922Z,76.26
2019-01-17T19:57:57.780Z,76.98
2019-01-17T20:00:26.577Z,77.75
2019-01-17T20:02:55.268Z,77.66
2019-01-17T20:05:29.780Z,78.40
2019-01-17T20:07:58.562Z,77.55
2019-01-17T20:10:32.157Z,76.16
2019-01-17T20:13:01.003Z,75.88
2019-01-17T20:15:29.713Z,75.57
2019-01-17T20:17:58.399Z,75.41
2019-01-17T20:20:31.818Z,75.33
2019-01-17T20:22:57.568Z,75.50
2019-01-17T20:25:26.282Z,75.67
2019-01-17T20:27:55.106Z,75.49
2019-01-17T20:30:26.485Z,75.38
2019-01-17T20:32:56.686Z,75.02
2019-01-17T20:35:25.507Z,73.99
2019-01-17T20:37:54.185Z,73.33
2019-01-17T20:40:24.664Z,73.31
2019-01-17T20:42:53.838Z,73.70
2019-01-17T20:45:22.823Z,74.25
2019-01-17T20:47:51.513Z,74.16
2019-01-17T20:50:28.725Z,74.03
2019-01-17T20:52:57.401Z,73.50
2019-01-17T20:55:26.080Z,74.07
2019-01-17T20:57:54.814Z,74.78
2019-01-17T21:00:29.688Z,75.16
2019-01-17T21:02:58.493Z,76.10
2019-01-17T21:05:28.096Z,76.35
2019-01-17T21:07:56.835Z,76.37
2019-01-17T21:10:25.601Z,76.25
2019-01-17T21:12:54.459Z,75.74
2019-01-17T21:15:23.153Z,74.93
2019-01-17T21:17:51.838Z,76.10
2019-01-17T21:20:20.584Z,77.51
2019-01-17T21:22:49.275Z,79.04
2019-01-17T21:25:19.934Z,80.05
2019-01-17T21:27:48.681Z,81.30
2019-01-17T21:30:22.969Z,81.56
2019-01-17T21:32:51.756Z,81.72
2019-01-17T21:35:20.666Z,81.83
2019-01-17T21:37:49.355Z,82.76
2019-01-17T21:40:22.986Z,83.96
2019-01-17T21:42:51.826Z,84.70
2019-01-17T21:45:20.910Z,85.57
2019-01-17T21:47:49.599Z,86.87
2019-01-17T21:50:24.402Z,86.79
2019-01-17T21:52:53.089Z,86.34
2019-01-17T21:55:21.822Z,86.27
2019-01-17T21:57:50.554Z,85.47
2019-01-17T22:00:24.919Z,84.73
2019-01-17T22:02:53.610Z,84.70
2019-01-17T22:05:22.926Z,84.70
2019-01-17T22:07:51.711Z,83.78
2019-01-17T22:10:21.796Z,83.78
2019-01-17T22:12:50.514Z,83.55
2019-01-17T22:15:24.557Z,83.61
2019-01-17T22:17:53.550Z,84.03
2019-01-17T22:20:22.272Z,82.83
2019-01-17T22:22:51.060Z,81.27
2019-01-17T22:25:20.977Z,82.18
2019-01-17T22:27:51.605Z,82.50
2019-01-17T22:30:25.437Z,82.65
2019-01-17T22:32:54.115Z,83.29
2019-01-17T22:35:23.385Z,83.98
2019-01-17T22:37:52.120Z,83.81
2019-01-17T22:40:20.912Z,82.64
2019-01-17T22:42:49.651Z,81.48
2019-01-17T22:45:29.999Z,81.53
2019-01-17T22:47:58.855Z,82.23
2019-01-17T22:50:27.652Z,83.71
2019-01-17T22:52:56.432Z,84.93
2019-01-17T22:55:25.263Z,85.67
2019-01-17T22:57:53.944Z,85.81
2019-01-17T23:00:51.146Z,85.40
2019-01-17T23:03:25.466Z,85.53
2019-01-17T23:05:54.149Z,85.87
2019-01-17T23:08:25.368Z,85.97
2019-01-17T23:10:54.053Z,86.24
2019-01-17T23:13:22.668Z,86.24
2019-01-17T23:15:51.473Z,86.24
2019-01-17T23:18:20.114Z,85.91
2019-01-17T23:20:48.794Z,85.86
2019-01-17T23:23:17.512Z,85.56
2019-01-17T23:25:46.200Z,85.95
2019-01-17T23:28:14.890Z,86.30
2019-01-17T23:30:43.633Z,86.45
2019-01-17T23:33:12.307Z,86.31
2019-01-17T23:35:41.087Z,86.55
2019-01-17T23:38:09.827Z,86.77
2019-01-17T23:40:38.515Z,86.82
2019-01-17T23:43:07.201Z,86.71
2019-01-17T23:45:35.928Z,86.37
2019-01-17T23:48:04.711Z,86.47
2019-01-17T23:50:33.395Z,86.60
2019-01-17T23:53:02.347Z,86.80
2019-01-17T23:55:31.031Z,87.09
2019-01-17T23:57:59.725Z,87.21
